sensor_id;sensor_type;location;lat;lon;timestamp;pressure;altitude;pressure_sealevel;temperature;humidity
17060;BME280;8646;49.716;9.266;2023-04-25T00:01:23;99609.47;;;11.61;79.41
17060;BME280;8646;49.716;9.266;2023-04-25T00:04:26;99605.13;;;11.59;79.40
17060;BME280;8646;49.716;9.266;2023-04-25T00:07:32;99617.81;;;11.58;79.58
17060;BME280;8646;49.716;9.266;2023-04-25T00:10:36;99614.22;;;11.58;79.35
17060;BME280;8646;49.716;9.266;2023-04-25T00:13:39;99610.53;;;11.59;79.69
17060;BME280;8646;49.716;9.266;2023-04-25T00:16:43;99609.84;;;11.55;79.93
17060;BME280;8646;49.716;9.266;2023-04-25T00:19:45;99613.34;;;11.57;78.14
17060;BME280;8646;49.716;9.266;2023-04-25T00:22:49;99616.50;;;11.34;78.73
17060;BME280;8646;49.716;9.266;2023-04-25T00:25:53;99628.66;;;11.27;78.96
17060;BME280;8646;49.716;9.266;2023-04-25T00:28:56;99631.94;;;11.32;78.46
17060;BME280;8646;49.716;9.266;2023-04-25T00:31:59;99626.25;;;11.21;78.49
17060;BME280;8646;49.716;9.266;2023-04-25T00:35:02;99626.44;;;11.02;79.13
17060;BME280;8646;49.716;9.266;2023-04-25T00:38:05;99618.38;;;11.00;79.32
17060;BME280;8646;49.716;9.266;2023-04-25T00:41:09;99620.91;;;11.03;79.48
17060;BME280;8646;49.716;9.266;2023-04-25T00:44:12;99626.31;;;11.03;79.49
17060;BME280;8646;49.716;9.266;2023-04-25T00:47:15;99627.13;;;11.05;79.71
17060;BME280;8646;49.716;9.266;2023-04-25T00:50:18;99624.94;;;11.12;79.15
17060;BME280;8646;49.716;9.266;2023-04-25T00:53:21;99621.19;;;11.15;78.97
17060;BME280;8646;49.716;9.266;2023-04-25T00:56:25;99625.72;;;10.98;79.29
17060;BME280;8646;49.716;9.266;2023-04-25T00:59:28;99620.66;;;10.92;79.57
17060;BME280;8646;49.716;9.266;2023-04-25T01:02:35;99621.44;;;10.94;79.11
17060;BME280;8646;49.716;9.266;2023-04-25T01:05:39;99610.44;;;10.97;79.21
17060;BME280;8646;49.716;9.266;2023-04-25T01:08:42;99616.59;;;10.84;79.67
17060;BME280;8646;49.716;9.266;2023-04-25T01:11:47;99620.34;;;10.81;79.76
17060;BME280;8646;49.716;9.266;2023-04-25T01:14:52;99616.22;;;10.74;80.14
17060;BME280;8646;49.716;9.266;2023-04-25T01:17:55;99609.06;;;10.73;80.17
17060;BME280;8646;49.716;9.266;2023-04-25T01:21:07;99607.16;;;10.75;79.82
17060;BME280;8646;49.716;9.266;2023-04-25T01:24:10;99606.03;;;10.79;80.26
17060;BME280;8646;49.716;9.266;2023-04-25T01:27:14;99604.53;;;10.74;80.73
17060;BME280;8646;49.716;9.266;2023-04-25T01:30:17;99592.44;;;10.63;81.00
17060;BME280;8646;49.716;9.266;2023-04-25T01:33:21;99591.34;;;10.67;80.68
17060;BME280;8646;49.716;9.266;2023-04-25T01:36:25;99600.34;;;10.68;80.64
17060;BME280;8646;49.716;9.266;2023-04-25T01:39:31;99593.19;;;10.67;80.87
17060;BME280;8646;49.716;9.266;2023-04-25T01:42:36;99592.72;;;10.59;81.41
17060;BME280;8646;49.716;9.266;2023-04-25T01:45:39;99599.63;;;10.64;81.73
17060;BME280;8646;49.716;9.266;2023-04-25T01:48:42;99598.75;;;10.64;81.89
17060;BME280;8646;49.716;9.266;2023-04-25T01:51:47;99601.72;;;10.59;81.96
17060;BME280;8646;49.716;9.266;2023-04-25T01:54:49;99599.88;;;10.60;82.17
17060;BME280;8646;49.716;9.266;2023-04-25T01:57:53;99593.28;;;10.48;82.10
17060;BME280;8646;49.716;9.266;2023-04-25T02:00:56;99605.28;;;10.60;82.61
17060;BME280;8646;49.716;9.266;2023-04-25T02:03:59;99607.81;;;10.63;82.84
17060;BME280;8646;49.716;9.266;2023-04-25T02:07:04;99606.84;;;10.64;83.00
17060;BME280;8646;49.716;9.266;2023-04-25T02:10:08;99604.94;;;10.66;82.87
17060;BME280;8646;49.716;9.266;2023-04-25T02:13:10;99605.56;;;10.71;83.18
17060;BME280;8646;49.716;9.266;2023-04-25T02:16:13;99607.16;;;10.75;83.40
17060;BME280;8646;49.716;9.266;2023-04-25T02:19:16;99600.00;;;10.74;83.47
17060;BME280;8646;49.716;9.266;2023-04-25T02:22:20;99603.66;;;10.73;82.99
17060;BME280;8646;49.716;9.266;2023-04-25T02:25:23;99599.28;;;10.70;82.68
17060;BME280;8646;49.716;9.266;2023-04-25T02:28:29;99598.44;;;10.70;82.15
17060;BME280;8646;49.716;9.266;2023-04-25T02:31:31;99600.56;;;10.63;82.20
17060;BME280;8646;49.716;9.266;2023-04-25T02:34:34;99595.44;;;10.59;82.47
17060;BME280;8646;49.716;9.266;2023-04-25T02:37:39;99594.38;;;10.61;82.17
17060;BME280;8646;49.716;9.266;2023-04-25T02:40:42;99599.63;;;10.64;81.86
17060;BME280;8646;49.716;9.266;2023-04-25T02:43:45;99593.59;;;10.59;82.17
17060;BME280;8646;49.716;9.266;2023-04-25T02:46:48;99595.28;;;10.62;81.82
17060;BME280;8646;49.716;9.266;2023-04-25T02:49:50;99590.63;;;10.64;82.19
17060;BME280;8646;49.716;9.266;2023-04-25T02:52:55;99596.84;;;10.66;82.17
17060;BME280;8646;49.716;9.266;2023-04-25T02:55:57;99586.88;;;10.66;82.21
17060;BME280;8646;49.716;9.266;2023-04-25T02:59:01;99594.94;;;10.68;82.04
17060;BME280;8646;49.716;9.266;2023-04-25T03:02:03;99586.88;;;10.66;82.21
17060;BME280;8646;49.716;9.266;2023-04-25T03:05:07;99590.41;;;10.68;82.01
17060;BME280;8646;49.716;9.266;2023-04-25T03:08:11;99589.50;;;10.68;81.88
17060;BME280;8646;49.716;9.266;2023-04-25T03:11:14;99587.59;;;10.70;82.17
17060;BME280;8646;49.716;9.266;2023-04-25T03:14:17;99586.72;;;10.69;82.40
17060;BME280;8646;49.716;9.266;2023-04-25T03:17:22;99590.41;;;10.68;82.28
17060;BME280;8646;49.716;9.266;2023-04-25T03:20:25;99592.31;;;10.66;82.26
17060;BME280;8646;49.716;9.266;2023-04-25T03:23:29;99595.28;;;10.62;82.55
17060;BME280;8646;49.716;9.266;2023-04-25T03:26:32;99585.56;;;10.58;82.70
17060;BME280;8646;49.716;9.266;2023-04-25T03:29:35;99592.78;;;10.57;82.53
17060;BME280;8646;49.716;9.266;2023-04-25T03:32:38;99595.56;;;10.56;82.82
17060;BME280;8646;49.716;9.266;2023-04-25T03:35:40;99601.06;;;10.54;82.85
17060;BME280;8646;49.716;9.266;2023-04-25T03:38:45;99602.19;;;10.50;82.83
17060;BME280;8646;49.716;9.266;2023-04-25T03:41:49;99598.00;;;10.45;83.15
17060;BME280;8646;49.716;9.266;2023-04-25T03:44:52;99601.75;;;10.42;83.24
17060;BME280;8646;49.716;9.266;2023-04-25T03:47:55;99607.16;;;10.42;82.90
17060;BME280;8646;49.716;9.266;2023-04-25T03:50:58;99609.31;;;10.36;82.98
17060;BME280;8646;49.716;9.266;2023-04-25T03:54:02;99616.22;;;10.24;83.01
17060;BME280;8646;49.716;9.266;2023-04-25T03:57:05;99613.59;;;10.22;83.54
17060;BME280;8646;49.716;9.266;2023-04-25T04:00:08;99616.31;;;10.22;83.13
17060;BME280;8646;49.716;9.266;2023-04-25T04:03:11;99615.34;;;10.23;83.52
17060;BME280;8646;49.716;9.266;2023-04-25T04:06:14;99613.44;;;10.25;83.47
17060;BME280;8646;49.716;9.266;2023-04-25T04:09:18;99622.50;;;10.24;83.52
17060;BME280;8646;49.716;9.266;2023-04-25T04:12:21;99625.22;;;10.24;84.11
17060;BME280;8646;49.716;9.266;2023-04-25T04:15:24;99620.59;;;10.26;84.59
17060;BME280;8646;49.716;9.266;2023-04-25T04:18:27;99629.66;;;10.25;84.25
17060;BME280;8646;49.716;9.266;2023-04-25T04:21:30;99614.25;;;10.27;84.79
17060;BME280;8646;49.716;9.266;2023-04-25T04:24:36;99623.78;;;10.17;85.02
17060;BME280;8646;49.716;9.266;2023-04-25T04:27:39;99625.66;;;10.15;85.36
17060;BME280;8646;49.716;9.266;2023-04-25T04:30:42;99625.72;;;10.14;85.21
17060;BME280;8646;49.716;9.266;2023-04-25T04:33:47;99615.53;;;10.20;85.84
17060;BME280;8646;49.716;9.266;2023-04-25T04:36:50;99619.31;;;10.16;86.05
17060;BME280;8646;49.716;9.266;2023-04-25T04:39:54;99622.41;;;10.09;86.18
17060;BME280;8646;49.716;9.266;2023-04-25T04:42:57;99623.41;;;10.06;85.78
17060;BME280;8646;49.716;9.266;2023-04-25T04:46:01;99615.97;;;10.11;85.95
17060;BME280;8646;49.716;9.266;2023-04-25T04:49:05;99622.69;;;10.21;85.79
17060;BME280;8646;49.716;9.266;2023-04-25T04:52:07;99632.63;;;10.21;85.97
17060;BME280;8646;49.716;9.266;2023-04-25T04:55:11;99633.56;;;10.20;86.09
17060;BME280;8646;49.716;9.266;2023-04-25T04:58:14;99651.31;;;10.25;85.81
17060;BME280;8646;49.716;9.266;2023-04-25T05:01:19;99637.38;;;10.33;85.75
17060;BME280;8646;49.716;9.266;2023-04-25T05:04:23;99646.22;;;10.37;85.64
17060;BME280;8646;49.716;9.266;2023-04-25T05:07:25;99648.66;;;10.41;85.91
17060;BME280;8646;49.716;9.266;2023-04-25T05:10:30;99655.97;;;10.39;85.66
17060;BME280;8646;49.716;9.266;2023-04-25T05:13:32;99657.81;;;10.39;85.60
17060;BME280;8646;49.716;9.266;2023-04-25T05:16:35;99661.50;;;10.38;86.12
17060;BME280;8646;49.716;9.266;2023-04-25T05:19:39;99659.63;;;10.38;86.00
17060;BME280;8646;49.716;9.266;2023-04-25T05:22:41;99660.44;;;10.40;86.05
17060;BME280;8646;49.716;9.266;2023-04-25T05:25:45;99659.09;;;10.31;85.70
17060;BME280;8646;49.716;9.266;2023-04-25T05:28:48;99671.50;;;10.36;85.52
17060;BME280;8646;49.716;9.266;2023-04-25T05:31:52;99665.84;;;10.40;85.74
17060;BME280;8646;49.716;9.266;2023-04-25T05:34:56;99669.03;;;10.48;85.41
17060;BME280;8646;49.716;9.266;2023-04-25T05:37:58;99666.66;;;10.59;85.12
17060;BME280;8646;49.716;9.266;2023-04-25T05:41:03;99671.97;;;10.78;84.55
17060;BME280;8646;49.716;9.266;2023-04-25T05:44:05;99670.25;;;10.93;84.08
17060;BME280;8646;49.716;9.266;2023-04-25T05:47:08;99673.41;;;11.01;83.71
17060;BME280;8646;49.716;9.266;2023-04-25T05:50:11;99670.28;;;11.08;83.44
17060;BME280;8646;49.716;9.266;2023-04-25T05:53:13;99671.84;;;11.13;83.07
17060;BME280;8646;49.716;9.266;2023-04-25T05:56:18;99676.94;;;11.19;82.63
17060;BME280;8646;49.716;9.266;2023-04-25T05:59:20;99679.22;;;11.26;82.11
17060;BME280;8646;49.716;9.266;2023-04-25T06:02:23;99685.53;;;11.27;80.49
17060;BME280;8646;49.716;9.266;2023-04-25T06:05:27;99682.69;;;11.13;80.63
17060;BME280;8646;49.716;9.266;2023-04-25T06:08:31;99686.34;;;11.12;80.46
17060;BME280;8646;49.716;9.266;2023-04-25T06:11:35;99691.94;;;11.08;80.69
17060;BME280;8646;49.716;9.266;2023-04-25T06:14:38;99697.81;;;11.17;80.78
17060;BME280;8646;49.716;9.266;2023-04-25T06:17:41;99686.72;;;11.37;79.09
17060;BME280;8646;49.716;9.266;2023-04-25T06:20:43;99690.13;;;11.25;77.15
17060;BME280;8646;49.716;9.266;2023-04-25T06:23:46;99686.97;;;11.17;76.88
17060;BME280;8646;49.716;9.266;2023-04-25T06:26:51;99702.69;;;11.10;76.57
17060;BME280;8646;49.716;9.266;2023-04-25T06:29:54;99698.66;;;11.01;74.98
17060;BME280;8646;49.716;9.266;2023-04-25T06:32:57;99693.72;;;10.92;76.10
17060;BME280;8646;49.716;9.266;2023-04-25T06:36:00;99687.56;;;11.06;74.59
17060;BME280;8646;49.716;9.266;2023-04-25T06:39:03;99695.59;;;11.07;75.25
17060;BME280;8646;49.716;9.266;2023-04-25T06:42:07;99698.34;;;11.23;74.97
17060;BME280;8646;49.716;9.266;2023-04-25T06:45:10;99694.34;;;11.46;73.35
17060;BME280;8646;49.716;9.266;2023-04-25T06:48:13;99691.47;;;11.33;72.92
17060;BME280;8646;49.716;9.266;2023-04-25T06:51:16;99699.50;;;11.35;74.06
17060;BME280;8646;49.716;9.266;2023-04-25T06:54:19;99694.09;;;11.35;73.72
17060;BME280;8646;49.716;9.266;2023-04-25T06:57:23;99703.38;;;11.62;72.71
17060;BME280;8646;49.716;9.266;2023-04-25T07:00:26;99680.59;;;12.28;68.13
17060;BME280;8646;49.716;9.266;2023-04-25T07:03:30;99676.56;;;12.49;67.53
17060;BME280;8646;49.716;9.266;2023-04-25T07:06:33;99684.88;;;12.90;66.96
17060;BME280;8646;49.716;9.266;2023-04-25T07:09:39;99680.84;;;12.97;67.36
17060;BME280;8646;49.716;9.266;2023-04-25T07:12:43;99682.94;;;12.92;65.37
17060;BME280;8646;49.716;9.266;2023-04-25T07:15:46;99687.25;;;12.52;64.64
17060;BME280;8646;49.716;9.266;2023-04-25T07:18:52;99689.25;;;12.18;65.96
17060;BME280;8646;49.716;9.266;2023-04-25T07:21:55;99697.47;;;12.17;65.25
17060;BME280;8646;49.716;9.266;2023-04-25T07:24:57;99691.88;;;12.50;64.66
17060;BME280;8646;49.716;9.266;2023-04-25T07:28:01;99693.03;;;12.90;63.70
17060;BME280;8646;49.716;9.266;2023-04-25T07:31:04;99704.00;;;12.88;63.12
17060;BME280;8646;49.716;9.266;2023-04-25T07:34:07;99700.19;;;12.77;64.13
17060;BME280;8646;49.716;9.266;2023-04-25T07:37:10;99706.03;;;12.85;64.93
17060;BME280;8646;49.716;9.266;2023-04-25T07:40:13;99695.19;;;12.99;63.39
17060;BME280;8646;49.716;9.266;2023-04-25T07:43:18;99692.66;;;13.10;63.52
17060;BME280;8646;49.716;9.266;2023-04-25T07:46:22;99688.94;;;13.27;62.11
17060;BME280;8646;49.716;9.266;2023-04-25T07:49:24;99689.41;;;13.19;59.77
17060;BME280;8646;49.716;9.266;2023-04-25T07:52:27;99696.69;;;13.19;59.03
17060;BME280;8646;49.716;9.266;2023-04-25T07:55:30;99704.31;;;13.12;60.00
17060;BME280;8646;49.716;9.266;2023-04-25T07:58:34;99707.56;;;13.19;59.62
17060;BME280;8646;49.716;9.266;2023-04-25T08:01:38;99699.88;;;13.40;60.24
17060;BME280;8646;49.716;9.266;2023-04-25T08:04:41;99707.50;;;13.75;60.07
17060;BME280;8646;49.716;9.266;2023-04-25T08:07:44;99706.81;;;14.13;59.28
17060;BME280;8646;49.716;9.266;2023-04-25T08:10:47;99702.75;;;14.33;58.48
17060;BME280;8646;49.716;9.266;2023-04-25T08:13:52;99701.75;;;14.48;57.51
17060;BME280;8646;49.716;9.266;2023-04-25T08:16:57;99699.16;;;14.59;57.23
17060;BME280;8646;49.716;9.266;2023-04-25T08:20:05;99701.22;;;14.68;56.61
17060;BME280;8646;49.716;9.266;2023-04-25T08:23:11;99705.72;;;14.82;55.54
17060;BME280;8646;49.716;9.266;2023-04-25T08:26:14;99705.97;;;14.92;54.76
17060;BME280;8646;49.716;9.266;2023-04-25T08:29:18;99701.59;;;14.89;54.31
17060;BME280;8646;49.716;9.266;2023-04-25T08:32:21;99709.53;;;14.67;52.71
17060;BME280;8646;49.716;9.266;2023-04-25T08:35:24;99723.16;;;14.40;53.98
17060;BME280;8646;49.716;9.266;2023-04-25T08:38:27;99721.72;;;14.34;53.90
17060;BME280;8646;49.716;9.266;2023-04-25T08:41:29;99727.25;;;14.33;53.33
17060;BME280;8646;49.716;9.266;2023-04-25T08:44:34;99728.75;;;14.24;52.35
17060;BME280;8646;49.716;9.266;2023-04-25T08:47:38;99733.97;;;14.00;52.04
17060;BME280;8646;49.716;9.266;2023-04-25T08:50:45;99738.25;;;13.90;52.50
17060;BME280;8646;49.716;9.266;2023-04-25T08:53:52;99726.22;;;13.94;50.71
17060;BME280;8646;49.716;9.266;2023-04-25T08:57:02;99748.59;;;13.57;51.48
17060;BME280;8646;49.716;9.266;2023-04-25T09:00:08;99755.38;;;13.64;52.14
17060;BME280;8646;49.716;9.266;2023-04-25T09:03:12;99762.53;;;13.79;52.52
17060;BME280;8646;49.716;9.266;2023-04-25T09:06:16;99755.63;;;13.88;51.73
17060;BME280;8646;49.716;9.266;2023-04-25T09:09:20;99771.03;;;14.16;50.82
17060;BME280;8646;49.716;9.266;2023-04-25T09:12:23;99769.59;;;14.37;50.41
17060;BME280;8646;49.716;9.266;2023-04-25T09:15:27;99763.56;;;14.46;47.88
17060;BME280;8646;49.716;9.266;2023-04-25T09:18:31;99760.50;;;14.65;46.30
17060;BME280;8646;49.716;9.266;2023-04-25T09:21:34;99771.56;;;14.35;47.25
17060;BME280;8646;49.716;9.266;2023-04-25T09:24:40;99764.53;;;14.45;47.91
17060;BME280;8646;49.716;9.266;2023-04-25T09:27:50;99773.03;;;14.67;47.55
17060;BME280;8646;49.716;9.266;2023-04-25T09:30:56;99769.88;;;14.73;46.69
17060;BME280;8646;49.716;9.266;2023-04-25T09:34:00;99772.16;;;14.67;46.96
17060;BME280;8646;49.716;9.266;2023-04-25T09:37:03;99780.97;;;14.43;47.29
17060;BME280;8646;49.716;9.266;2023-04-25T09:40:07;99779.94;;;14.32;47.79
17060;BME280;8646;49.716;9.266;2023-04-25T09:43:18;99778.19;;;14.31;47.54
17060;BME280;8646;49.716;9.266;2023-04-25T09:46:23;99786.75;;;14.25;46.28
17060;BME280;8646;49.716;9.266;2023-04-25T09:49:27;99780.91;;;14.31;47.52
17060;BME280;8646;49.716;9.266;2023-04-25T09:52:29;99779.16;;;14.30;47.53
17060;BME280;8646;49.716;9.266;2023-04-25T09:55:34;99784.41;;;14.33;46.44
17060;BME280;8646;49.716;9.266;2023-04-25T09:58:38;99799.19;;;14.29;47.46
17060;BME280;8646;49.716;9.266;2023-04-25T10:01:43;99778.72;;;14.36;47.60
17060;BME280;8646;49.716;9.266;2023-04-25T10:04:49;99784.53;;;14.58;45.71
17060;BME280;8646;49.716;9.266;2023-04-25T10:07:54;99791.13;;;14.41;46.43
17060;BME280;8646;49.716;9.266;2023-04-25T10:10:59;99788.63;;;14.78;46.38
17060;BME280;8646;49.716;9.266;2023-04-25T10:14:02;99783.03;;;15.19;45.24
17060;BME280;8646;49.716;9.266;2023-04-25T10:17:07;99780.84;;;15.49;44.64
17060;BME280;8646;49.716;9.266;2023-04-25T10:20:13;99775.53;;;15.73;43.87
17060;BME280;8646;49.716;9.266;2023-04-25T10:23:18;99791.88;;;15.73;44.50
17060;BME280;8646;49.716;9.266;2023-04-25T10:26:21;99797.16;;;15.63;44.74
17060;BME280;8646;49.716;9.266;2023-04-25T10:29:24;99781.31;;;15.43;43.99
17060;BME280;8646;49.716;9.266;2023-04-25T10:32:30;99805.81;;;15.18;44.42
17060;BME280;8646;49.716;9.266;2023-04-25T10:35:35;99799.03;;;15.11;44.62
17060;BME280;8646;49.716;9.266;2023-04-25T10:38:39;99791.00;;;15.22;44.41
17060;BME280;8646;49.716;9.266;2023-04-25T10:41:46;99810.63;;;15.52;44.25
17060;BME280;8646;49.716;9.266;2023-04-25T10:45:01;99802.06;;;15.58;43.07
17060;BME280;8646;49.716;9.266;2023-04-25T10:48:24;99797.47;;;15.59;42.44
17060;BME280;8646;49.716;9.266;2023-04-25T10:51:29;99818.00;;;15.00;43.99
17060;BME280;8646;49.716;9.266;2023-04-25T10:54:54;99822.78;;;14.69;45.37
17060;BME280;8646;49.716;9.266;2023-04-25T10:57:57;99826.09;;;14.47;46.32
17060;BME280;8646;49.716;9.266;2023-04-25T11:01:01;99828.75;;;14.21;47.09
17060;BME280;8646;49.716;9.266;2023-04-25T11:04:05;99839.47;;;14.09;47.66
17060;BME280;8646;49.716;9.266;2023-04-25T11:07:16;99844.53;;;13.73;48.51
17060;BME280;8646;49.716;9.266;2023-04-25T11:10:25;99855.66;;;13.54;49.99
17060;BME280;8646;49.716;9.266;2023-04-25T11:13:29;99847.00;;;13.33;50.26
17060;BME280;8646;49.716;9.266;2023-04-25T11:16:32;99857.59;;;13.38;50.93
17060;BME280;8646;49.716;9.266;2023-04-25T11:19:36;99845.97;;;13.50;50.80
17060;BME280;8646;49.716;9.266;2023-04-25T11:22:39;99832.69;;;13.60;50.70
17060;BME280;8646;49.716;9.266;2023-04-25T11:25:43;99840.44;;;14.08;49.63
17060;BME280;8646;49.716;9.266;2023-04-25T11:28:49;99846.69;;;14.37;49.21
17060;BME280;8646;49.716;9.266;2023-04-25T11:31:52;99843.09;;;14.78;47.46
17060;BME280;8646;49.716;9.266;2023-04-25T11:34:57;99836.50;;;14.95;47.69
17060;BME280;8646;49.716;9.266;2023-04-25T11:38:01;99839.63;;;15.28;46.30
17060;BME280;8646;49.716;9.266;2023-04-25T11:41:04;99831.94;;;15.60;45.95
17060;BME280;8646;49.716;9.266;2023-04-25T11:44:06;99834.31;;;15.90;45.32
17060;BME280;8646;49.716;9.266;2023-04-25T11:47:09;99839.56;;;15.93;45.25
17060;BME280;8646;49.716;9.266;2023-04-25T11:50:13;99837.25;;;15.99;44.80
17060;BME280;8646;49.716;9.266;2023-04-25T11:53:17;99855.16;;;15.91;44.03
17060;BME280;8646;49.716;9.266;2023-04-25T11:56:20;99848.97;;;15.89;43.48
17060;BME280;8646;49.716;9.266;2023-04-25T11:59:24;99854.75;;;15.84;43.15
17060;BME280;8646;49.716;9.266;2023-04-25T12:02:29;99860.63;;;15.91;42.91
17060;BME280;8646;49.716;9.266;2023-04-25T12:05:34;99857.16;;;15.89;43.03
17060;BME280;8646;49.716;9.266;2023-04-25T12:08:58;99846.03;;;15.79;43.10
17060;BME280;8646;49.716;9.266;2023-04-25T12:12:01;99858.78;;;15.79;43.41
17060;BME280;8646;49.716;9.266;2023-04-25T12:15:10;99855.41;;;15.75;43.94
17060;BME280;8646;49.716;9.266;2023-04-25T12:18:12;99870.47;;;15.68;43.77
17060;BME280;8646;49.716;9.266;2023-04-25T12:21:17;99872.16;;;15.44;44.32
17060;BME280;8646;49.716;9.266;2023-04-25T12:24:22;99887.38;;;15.21;44.33
17060;BME280;8646;49.716;9.266;2023-04-25T12:27:26;99891.78;;;14.97;43.85
17060;BME280;8646;49.716;9.266;2023-04-25T12:30:30;99897.16;;;14.57;45.53
17060;BME280;8646;49.716;9.266;2023-04-25T12:33:34;99892.69;;;14.56;44.95
17060;BME280;8646;49.716;9.266;2023-04-25T12:36:38;99904.06;;;14.48;46.46
17060;BME280;8646;49.716;9.266;2023-04-25T12:39:41;99892.44;;;14.73;46.35
17060;BME280;8646;49.716;9.266;2023-04-25T12:42:44;99892.78;;;15.08;45.83
17060;BME280;8646;49.716;9.266;2023-04-25T12:45:48;99894.34;;;15.25;44.73
17060;BME280;8646;49.716;9.266;2023-04-25T12:48:51;99891.13;;;15.45;44.21
17060;BME280;8646;49.716;9.266;2023-04-25T12:51:55;99894.03;;;15.56;43.67
17060;BME280;8646;49.716;9.266;2023-04-25T12:54:58;99893.25;;;15.67;43.60
17060;BME280;8646;49.716;9.266;2023-04-25T12:58:01;99885.41;;;15.75;42.92
17060;BME280;8646;49.716;9.266;2023-04-25T13:01:04;99879.66;;;15.80;43.07
17060;BME280;8646;49.716;9.266;2023-04-25T13:04:07;99899.94;;;15.88;42.84
17060;BME280;8646;49.716;9.266;2023-04-25T13:07:11;99890.31;;;15.70;42.71
17060;BME280;8646;49.716;9.266;2023-04-25T13:10:14;99897.56;;;15.32;43.50
17060;BME280;8646;49.716;9.266;2023-04-25T13:13:17;99902.13;;;14.77;44.65
17060;BME280;8646;49.716;9.266;2023-04-25T13:16:19;99917.00;;;14.59;45.67
17060;BME280;8646;49.716;9.266;2023-04-25T13:19:23;99912.28;;;14.75;45.02
17060;BME280;8646;49.716;9.266;2023-04-25T13:22:28;99920.09;;;14.67;45.86
17060;BME280;8646;49.716;9.266;2023-04-25T13:25:31;99923.69;;;14.95;45.63
17060;BME280;8646;49.716;9.266;2023-04-25T13:28:33;99916.16;;;15.25;45.48
17060;BME280;8646;49.716;9.266;2023-04-25T13:31:36;99911.25;;;15.57;45.02
17060;BME280;8646;49.716;9.266;2023-04-25T13:34:39;99913.91;;;15.71;44.65
17060;BME280;8646;49.716;9.266;2023-04-25T13:37:43;99911.59;;;15.78;44.76
17060;BME280;8646;49.716;9.266;2023-04-25T13:40:46;99915.41;;;15.75;44.74
17060;BME280;8646;49.716;9.266;2023-04-25T13:43:49;99918.47;;;15.71;44.51
17060;BME280;8646;49.716;9.266;2023-04-25T13:46:52;99902.22;;;15.56;44.52
17060;BME280;8646;49.716;9.266;2023-04-25T13:49:55;99916.84;;;15.41;43.18
17060;BME280;8646;49.716;9.266;2023-04-25T13:52:59;99912.06;;;15.05;43.61
17060;BME280;8646;49.716;9.266;2023-04-25T13:56:02;99917.44;;;15.19;43.75
17060;BME280;8646;49.716;9.266;2023-04-25T13:59:06;99913.91;;;15.71;43.20
17060;BME280;8646;49.716;9.266;2023-04-25T14:02:08;99909.53;;;16.07;42.96
17060;BME280;8646;49.716;9.266;2023-04-25T14:05:11;99898.31;;;16.48;42.37
17060;BME280;8646;49.716;9.266;2023-04-25T14:08:16;99896.41;;;16.86;41.39
17060;BME280;8646;49.716;9.266;2023-04-25T14:11:19;99904.00;;;16.70;40.89
17060;BME280;8646;49.716;9.266;2023-04-25T14:14:22;99913.63;;;16.50;41.67
17060;BME280;8646;49.716;9.266;2023-04-25T14:17:25;99907.16;;;16.51;40.45
17060;BME280;8646;49.716;9.266;2023-04-25T14:20:28;99916.66;;;15.96;41.70
17060;BME280;8646;49.716;9.266;2023-04-25T14:23:32;99921.78;;;15.49;42.58
17060;BME280;8646;49.716;9.266;2023-04-25T14:26:35;99920.97;;;15.21;43.18
17060;BME280;8646;49.716;9.266;2023-04-25T14:29:38;99916.22;;;15.11;43.06
17060;BME280;8646;49.716;9.266;2023-04-25T14:32:40;99936.34;;;14.96;43.60
17060;BME280;8646;49.716;9.266;2023-04-25T14:35:44;99935.47;;;14.95;44.08
17060;BME280;8646;49.716;9.266;2023-04-25T14:38:48;99938.50;;;14.91;43.72
17060;BME280;8646;49.716;9.266;2023-04-25T14:41:51;99943.59;;;14.82;43.82
17060;BME280;8646;49.716;9.266;2023-04-25T14:44:53;99943.44;;;14.98;43.93
17060;BME280;8646;49.716;9.266;2023-04-25T14:47:56;99943.19;;;15.15;43.50
17060;BME280;8646;49.716;9.266;2023-04-25T14:50:59;99941.25;;;15.30;42.58
17060;BME280;8646;49.716;9.266;2023-04-25T14:54:04;99938.88;;;15.38;42.57
17060;BME280;8646;49.716;9.266;2023-04-25T14:57:06;99936.97;;;15.53;40.97
17060;BME280;8646;49.716;9.266;2023-04-25T15:00:10;99943.38;;;15.39;41.37
17060;BME280;8646;49.716;9.266;2023-04-25T15:03:17;99952.63;;;15.37;41.63
17060;BME280;8646;49.716;9.266;2023-04-25T15:06:20;99954.16;;;15.41;42.46
17060;BME280;8646;49.716;9.266;2023-04-25T15:09:24;99955.38;;;15.49;41.26
17060;BME280;8646;49.716;9.266;2023-04-25T15:12:27;99946.53;;;15.46;41.25
17060;BME280;8646;49.716;9.266;2023-04-25T15:15:30;99946.63;;;15.44;40.98
17060;BME280;8646;49.716;9.266;2023-04-25T15:18:32;99954.63;;;15.47;41.49
17060;BME280;8646;49.716;9.266;2023-04-25T15:21:36;99947.38;;;15.60;41.24
17060;BME280;8646;49.716;9.266;2023-04-25T15:24:40;99952.97;;;15.72;41.09
17060;BME280;8646;49.716;9.266;2023-04-25T15:27:43;99952.97;;;15.72;40.38
17060;BME280;8646;49.716;9.266;2023-04-25T15:30:46;99967.56;;;15.71;40.79
17060;BME280;8646;49.716;9.266;2023-04-25T15:33:49;99960.38;;;15.70;40.26
17060;BME280;8646;49.716;9.266;2023-04-25T15:36:52;99964.19;;;15.67;39.11
17060;BME280;8646;49.716;9.266;2023-04-25T15:40:01;99968.66;;;15.41;39.49
17060;BME280;8646;49.716;9.266;2023-04-25T15:43:08;99977.22;;;15.22;39.71
17060;BME280;8646;49.716;9.266;2023-04-25T15:46:16;99971.31;;;15.16;39.92
17060;BME280;8646;49.716;9.266;2023-04-25T15:49:19;99959.81;;;15.11;38.35
17060;BME280;8646;49.716;9.266;2023-04-25T15:52:22;99968.34;;;14.92;39.28
17060;BME280;8646;49.716;9.266;2023-04-25T15:55:26;99963.44;;;15.11;39.12
17060;BME280;8646;49.716;9.266;2023-04-25T15:58:29;99956.66;;;15.44;38.20
17060;BME280;8646;49.716;9.266;2023-04-25T16:01:34;99958.59;;;15.56;38.06
17060;BME280;8646;49.716;9.266;2023-04-25T16:04:37;99966.19;;;15.51;38.39
17060;BME280;8646;49.716;9.266;2023-04-25T16:07:41;99958.41;;;15.32;37.96
17060;BME280;8646;49.716;9.266;2023-04-25T16:10:45;99962.09;;;15.04;38.26
17060;BME280;8646;49.716;9.266;2023-04-25T16:13:48;99962.66;;;14.82;38.28
17060;BME280;8646;49.716;9.266;2023-04-25T16:16:51;99977.75;;;14.45;39.05
17060;BME280;8646;49.716;9.266;2023-04-25T16:19:55;99970.53;;;14.30;38.58
17060;BME280;8646;49.716;9.266;2023-04-25T16:22:59;99972.00;;;14.07;39.32
17060;BME280;8646;49.716;9.266;2023-04-25T16:26:04;99986.34;;;13.81;40.08